Ardenvoir, WA

9:54 AM PDT on June 26, 2017 (GMT -0700)
Entiat Valley | | Change Station
Active Advisory: Fire Weather Warning

Elev 1050 ft 47.70 °N, 120.33 °W | Updated 4 seconds ago

Clear
Clear
74.6 °F
Feels Like 77 °F
N
1.0
Wind Variable Wind from ESE
Gusts 3.0 mph

Today
High -- | Low -- °F
--% Chance of Precip.
Yesterday
High -- | Low -- °F
Precip. -- in
Pressure 29.79 in
Visibility 10.0 miles
Clouds Clear
Heat Index 77 °F
Dew Point 58 °F
Humidity 56%
Rainfall 0.00 in
Snow Depth Not available.
5:04 AM 9:03 PM
Waxing Crescent, 10% visible
METAR KEAT 261555Z AUTO 25006KT 10SM CLR 23/10 A2982 RMK AO2 SLP086 T02330100
Pressure 29.79 in
Visibility 10.0 miles
Clouds Clear
Heat Index 77 °F
Dew Point 58 °F
Humidity 56%
Rainfall 0.00 in
Snow Depth Not available.
5:04 AM 9:03 PM
Waxing Crescent, 10% visible
METAR KEAT 261555Z AUTO 25006KT 10SM CLR 23/10 A2982 RMK AO2 SLP086 T02330100

Get Your Daily Forecast Email!

Thanks for signing up!

Be on the lookout for a verification email in your inbox.

You'll start receiving severe weather alerts in your inbox..

×

10-Day Weather Forecast

Almanac

Astronomy

Jun. 26, 2017 Rise Set
Actual Time
Civil Twilight
Nautical Twilight
Astronomical Twilight
Moon
Length of Visible Light
Length of Day
Tomorrow will be .
, % of the Moon is Illuminated

Today's Extremes

State Highs State Lows

Community

WunderPhotos

Category 6

Welcome to Category 6. This is the collective home for Weather Underground's featured writeups by Dr. Jeff Masters (right), Bob Henson (left), Chris Burt, and other regular contributors.

Nearby

Air Quality

  Air Quality AQ Index Pollutant
Not available.

Snow Depth

Station Depth Elevation

Earthquake Activity

City Distance Mag. Time & Date
Minimum magnitude displayed is 2.5.

Coastal Water Temperatures

Place Temperature

Stations

Nearby Weather Stations

Station Location Temp. Windchill Dew Point Humidity Wind Precip. Elev Updated Type
                   

Watches & Warnings

Fire Weather Warning
Issued: 9:15 AM PDT Jun. 26, 2017 – National Weather Service

... Red flag warning in effect from 2 PM this afternoon to 8 PM
PDT this evening for wind and low relative humidity for eastern
Washington central Cascade valleys...

The National Weather Service in Spokane has issued a red flag
warning for wind and low relative humidity... which is in effect
from 2 PM this afternoon to 8 PM PDT this evening.

* Affected area: fire weather zone 677 East Washington central
Cascade valleys (zone 677).

* Winds: west 15 to 20 mph with gusts up to 30 mph.

* Relative humidities: 13 to 25 percent.

* Impacts: any ongoing or new fires will likely spread rapidly.
Outdoor burning is not recommended.

Precautionary/preparedness actions...

A red flag warning means that critical fire weather conditions
are either occurring now... .or will shortly. A combination of
strong winds... low relative humidity... and warm temperatures can
contribute to extreme fire behavior.